createdAt,value
2019-05-28T00:03:12.361Z,99.90
2019-05-28T00:08:16.339Z,99.90
2019-05-28T00:13:20.057Z,99.50
2019-05-28T00:18:23.757Z,98.80
2019-05-28T00:23:27.451Z,98.80
2019-05-28T00:28:31.150Z,98.90
2019-05-28T00:33:35.217Z,98.80
2019-05-28T00:38:38.840Z,98.90
2019-05-28T00:43:42.470Z,98.70
2019-05-28T00:48:46.165Z,99.40
2019-05-28T00:53:50.261Z,99.90
2019-05-28T00:58:54.126Z,99.90
2019-05-28T01:03:58.074Z,99.90
2019-05-28T01:09:02.110Z,99.90
2019-05-28T01:14:06.450Z,99.90
2019-05-28T01:19:10.077Z,99.90
2019-05-28T01:24:13.783Z,99.90
2019-05-28T01:29:17.485Z,99.90
2019-05-28T01:34:21.202Z,99.90
2019-05-28T01:39:24.903Z,99.90
2019-05-28T01:44:28.531Z,99.90
2019-05-28T01:49:32.163Z,99.90
2019-05-28T01:54:35.789Z,99.90
2019-05-28T01:59:39.799Z,99.90
2019-05-28T02:04:43.872Z,99.90
2019-05-28T02:09:47.484Z,99.90
2019-05-28T02:14:51.176Z,99.90
2019-05-28T02:19:54.795Z,99.90
2019-05-28T02:24:58.484Z,99.90
2019-05-28T02:30:02.640Z,99.90
2019-05-28T02:35:11.307Z,99.90
2019-05-28T02:40:15.150Z,99.90
2019-05-28T02:45:19.888Z,99.90
2019-05-28T02:50:55.599Z,99.90
2019-05-28T02:55:59.367Z,99.90
2019-05-28T03:01:04.033Z,99.90
2019-05-28T03:06:07.799Z,99.90
2019-05-28T03:11:11.416Z,99.90
2019-05-28T03:16:17.204Z,99.90
2019-05-28T03:21:22.066Z,99.90
2019-05-28T03:26:26.036Z,99.90
2019-05-28T03:31:30.228Z,99.90
2019-05-28T03:36:35.205Z,99.90
2019-05-28T03:41:39.211Z,99.90
2019-05-28T03:46:43.221Z,99.90
2019-05-28T03:51:46.903Z,99.90
2019-05-28T03:56:51.001Z,99.90
2019-05-28T04:01:55.007Z,99.90
2019-05-28T04:06:58.759Z,99.90
2019-05-28T04:12:02.461Z,99.90
2019-05-28T04:17:06.154Z,99.90
2019-05-28T04:22:10.308Z,99.90
2019-05-28T04:27:14.414Z,99.90
2019-05-28T04:32:18.136Z,99.90
2019-05-28T04:37:21.751Z,99.90
2019-05-28T04:42:25.856Z,99.90
2019-05-28T04:47:29.556Z,99.90
2019-05-28T04:52:33.183Z,99.90
2019-05-28T04:57:36.953Z,99.90
2019-05-28T05:02:57.919Z,99.90
2019-05-28T05:07:46.063Z,99.90
2019-05-28T05:12:50.088Z,99.90
2019-05-28T05:17:53.669Z,99.90
2019-05-28T05:22:57.664Z,99.90
2019-05-28T05:28:01.434Z,99.90
2019-05-28T05:33:19.220Z,99.90
2019-05-28T05:38:12.145Z,99.90
2019-05-28T05:43:15.935Z,99.90
2019-05-28T05:48:21.981Z,99.90
2019-05-28T05:53:25.597Z,99.90
2019-05-28T05:58:29.227Z,99.90
2019-05-28T06:03:40.399Z,99.90
2019-05-28T06:08:38.665Z,99.90
2019-05-28T06:13:42.298Z,99.90
2019-05-28T06:18:45.993Z,99.90
2019-05-28T06:23:49.636Z,99.90
2019-05-28T06:28:53.314Z,99.90
2019-05-28T06:33:57.614Z,99.90
2019-05-28T06:39:01.469Z,99.90
2019-05-28T06:44:05.237Z,99.90
2019-05-28T06:49:09.311Z,99.90
2019-05-28T06:54:13.010Z,99.90
2019-05-28T06:59:16.719Z,99.90
2019-05-28T07:04:32.482Z,99.90
2019-05-28T07:09:25.772Z,99.50
2019-05-28T07:14:29.636Z,97.40
2019-05-28T07:19:33.267Z,96.80
2019-05-28T07:24:36.953Z,96.70
2019-05-28T07:29:40.717Z,97.50
2019-05-28T07:34:44.526Z,98.40
2019-05-28T07:39:48.158Z,98.10
2019-05-28T07:44:52.890Z,98.20
2019-05-28T07:49:56.572Z,97.00
2019-05-28T07:55:00.193Z,95.80
2019-05-28T08:00:06.205Z,98.10
2019-05-28T08:05:10.136Z,95.60
2019-05-28T08:10:14.699Z,96.90
2019-05-28T08:15:18.552Z,96.20
2019-05-28T08:20:22.192Z,95.60
2019-05-28T08:25:45.561Z,95.00
2019-05-28T08:30:31.241Z,95.80
2019-05-28T08:35:35.040Z,97.80
2019-05-28T08:40:38.851Z,95.00
2019-05-28T08:45:42.927Z,95.30
2019-05-28T08:50:46.965Z,94.30
2019-05-28T08:55:50.693Z,94.50
2019-05-28T09:00:54.379Z,94.30
2019-05-28T09:05:58.349Z,94.40
2019-05-28T09:11:02.355Z,93.90
2019-05-28T09:16:06.709Z,91.80
2019-05-28T09:21:10.777Z,92.30
2019-05-28T09:26:14.418Z,94.00
2019-05-28T09:31:18.507Z,93.80
2019-05-28T09:36:22.212Z,93.90
2019-05-28T09:41:27.842Z,92.70
2019-05-28T09:46:31.764Z,92.80
2019-05-28T09:51:35.411Z,95.20
2019-05-28T09:56:39.370Z,95.60
2019-05-28T10:01:43.429Z,95.50
2019-05-28T10:06:47.108Z,96.80
2019-05-28T10:11:50.963Z,96.20
2019-05-28T10:16:57.179Z,95.00
2019-05-28T10:22:00.715Z,93.70
2019-05-28T10:27:06.467Z,94.90
2019-05-28T10:32:10.109Z,95.10
2019-05-28T10:37:13.800Z,95.10
2019-05-28T10:42:17.743Z,95.50
2019-05-28T10:47:21.436Z,95.30
2019-05-28T10:52:25.476Z,95.60
2019-05-28T10:57:29.456Z,94.70
2019-05-28T11:02:35.776Z,93.20
2019-05-28T11:07:40.711Z,92.50
2019-05-28T11:12:44.411Z,92.50
2019-05-28T11:17:48.201Z,90.30
2019-05-28T11:22:52.468Z,91.40
2019-05-28T11:27:56.245Z,92.70
2019-05-28T11:33:00.417Z,94.20
2019-05-28T11:38:05.908Z,96.00
2019-05-28T11:43:09.975Z,98.80
2019-05-28T11:48:13.665Z,98.60
2019-05-28T11:53:17.744Z,97.60
2019-05-28T11:58:21.765Z,97.10
2019-05-28T12:03:25.472Z,97.00
2019-05-28T12:08:29.120Z,98.10
2019-05-28T12:13:34.250Z,97.10
2019-05-28T12:18:38.313Z,96.50
2019-05-28T12:23:41.924Z,96.50
2019-05-28T12:28:46.092Z,96.50
2019-05-28T12:33:50.200Z,91.60
2019-05-28T12:38:54.299Z,95.30
2019-05-28T12:43:57.897Z,96.80
2019-05-28T12:49:01.527Z,96.60
2019-05-28T12:54:05.305Z,96.80
2019-05-28T12:59:09.028Z,97.30
2019-05-28T13:04:14.741Z,96.30
2019-05-28T13:09:18.604Z,96.90
2019-05-28T13:14:24.238Z,97.70
2019-05-28T13:19:28.007Z,97.40
2019-05-28T13:24:32.156Z,95.90
2019-05-28T13:29:37.775Z,96.30
2019-05-28T13:34:41.632Z,95.50
2019-05-28T13:39:47.849Z,97.30
2019-05-28T13:44:51.715Z,98.40
2019-05-28T13:49:55.683Z,99.00
2019-05-28T13:54:59.301Z,98.00
2019-05-28T14:00:03.312Z,96.40
2019-05-28T14:05:08.301Z,97.60
2019-05-28T14:10:13.990Z,96.70
2019-05-28T14:15:19.969Z,96.10
2019-05-28T14:20:24.196Z,94.10
2019-05-28T14:25:27.956Z,93.90
2019-05-28T14:30:32.236Z,92.60
2019-05-28T14:35:36.373Z,91.10
2019-05-28T14:40:40.227Z,91.50
2019-05-28T14:45:45.194Z,83.60
2019-05-28T14:50:49.231Z,88.60
2019-05-28T14:55:53.470Z,87.30
2019-05-28T15:00:57.124Z,87.70
2019-05-28T15:06:00.753Z,89.30
2019-05-28T15:11:04.514Z,90.60
2019-05-28T15:16:08.226Z,90.10
2019-05-28T15:21:12.047Z,88.80
2019-05-28T15:26:16.093Z,82.40
2019-05-28T15:31:19.804Z,79.90
2019-05-28T15:36:23.583Z,80.80
2019-05-28T15:41:27.300Z,83.30
2019-05-28T15:46:30.996Z,82.30
2019-05-28T15:51:34.678Z,78.30
2019-05-28T15:56:38.377Z,79.10
2019-05-28T16:01:42.071Z,77.60
2019-05-28T16:06:45.834Z,81.60
2019-05-28T16:11:50.577Z,78.70
2019-05-28T16:16:54.173Z,79.10
2019-05-28T16:21:58.222Z,80.20
2019-05-28T16:27:03.617Z,80.60
2019-05-28T16:32:07.291Z,89.10
2019-05-28T16:37:11.046Z,92.20
2019-05-28T16:42:14.839Z,93.20
2019-05-28T16:47:18.980Z,94.10
2019-05-28T16:52:22.804Z,96.00
2019-05-28T16:57:26.423Z,97.70
2019-05-28T17:02:30.122Z,98.20
2019-05-28T17:07:33.895Z,99.00
2019-05-28T17:12:37.659Z,99.60
2019-05-28T17:17:41.491Z,99.20
2019-05-28T17:22:45.269Z,98.60
2019-05-28T17:27:49.031Z,98.70
2019-05-28T17:32:52.660Z,98.60
2019-05-28T17:37:56.753Z,98.10
2019-05-28T17:43:00.390Z,97.70
2019-05-28T17:48:04.457Z,97.90
2019-05-28T17:53:08.766Z,96.40
2019-05-28T17:58:12.840Z,97.10
2019-05-28T18:03:16.627Z,95.50
2019-05-28T18:08:20.416Z,96.30
2019-05-28T18:13:24.123Z,97.20
2019-05-28T18:18:27.734Z,97.60
2019-05-28T18:23:31.376Z,97.40
2019-05-28T18:28:35.335Z,98.20
2019-05-28T18:33:39.083Z,98.70
2019-05-28T18:38:43.760Z,99.10
2019-05-28T18:43:47.681Z,99.80
2019-05-28T18:48:51.596Z,99.60
2019-05-28T18:53:55.236Z,99.90
2019-05-28T18:58:59.213Z,99.40
2019-05-28T19:04:02.943Z,99.40
2019-05-28T19:09:11.447Z,99.70
2019-05-28T19:14:14.830Z,99.00
2019-05-28T19:19:18.591Z,99.00
2019-05-28T19:24:22.365Z,99.10
2019-05-28T19:29:26.242Z,99.50
2019-05-28T19:34:30.171Z,99.00
2019-05-28T19:39:33.865Z,97.00
2019-05-28T19:44:37.463Z,98.20
2019-05-28T19:49:41.142Z,98.10
2019-05-28T19:54:44.825Z,98.40
2019-05-28T19:59:48.555Z,98.70
2019-05-28T20:04:52.580Z,98.90
2019-05-28T20:09:56.157Z,98.80
2019-05-28T20:14:59.755Z,99.20
2019-05-28T20:20:04.893Z,99.90
2019-05-28T20:25:10.383Z,99.90
2019-05-28T20:30:14.545Z,99.90
2019-05-28T20:35:18.268Z,99.90
2019-05-28T20:40:22.296Z,99.90
2019-05-28T20:45:25.883Z,99.90
2019-05-28T20:50:29.694Z,99.90
2019-05-28T20:55:33.414Z,99.90
2019-05-28T21:00:37.137Z,99.90
2019-05-28T21:05:40.732Z,99.90
2019-05-28T21:10:44.797Z,99.90
2019-05-28T21:15:48.631Z,99.90
2019-05-28T21:20:53.595Z,99.90
2019-05-28T21:25:58.360Z,99.90
2019-05-28T21:31:02.448Z,99.90
2019-05-28T21:36:06.169Z,99.90
2019-05-28T21:41:09.824Z,99.90
2019-05-28T21:46:14.684Z,99.90
2019-05-28T21:51:18.405Z,99.90
2019-05-28T21:56:21.989Z,99.90
2019-05-28T22:01:28.784Z,99.90
2019-05-28T22:06:32.512Z,99.90
2019-05-28T22:11:36.356Z,99.90
2019-05-28T22:16:40.010Z,99.90
2019-05-28T22:21:43.656Z,99.90
2019-05-28T22:26:47.446Z,99.90
2019-05-28T22:31:51.104Z,99.90
2019-05-28T22:36:55.911Z,99.90
2019-05-28T22:41:59.851Z,99.90
2019-05-28T22:47:03.765Z,99.90
2019-05-28T22:52:08.102Z,99.90
2019-05-28T22:57:11.672Z,99.90
2019-05-28T23:02:15.344Z,99.90
2019-05-28T23:07:19.064Z,99.90
2019-05-28T23:12:22.716Z,99.90
2019-05-28T23:17:26.361Z,99.90
2019-05-28T23:22:29.954Z,99.90
2019-05-28T23:27:33.849Z,99.90
2019-05-28T23:32:37.581Z,99.90
2019-05-28T23:37:41.315Z,99.90
2019-05-28T23:42:44.871Z,99.90
2019-05-28T23:47:48.460Z,99.90
2019-05-28T23:52:52.237Z,99.90
2019-05-28T23:57:56.302Z,99.90
